createdAt,value
2019-02-26T00:00:26.259Z,15.67
2019-02-26T00:02:56.299Z,14.77
2019-02-26T00:05:26.046Z,13.17
2019-02-26T00:07:55.996Z,13.50
2019-02-26T00:10:26.735Z,15.47
2019-02-26T00:12:55.261Z,13.60
2019-02-26T00:15:23.688Z,14.83
2019-02-26T00:17:53.018Z,11.10
2019-02-26T00:20:21.612Z,12.60
2019-02-26T00:22:50.028Z,12.53
2019-02-26T00:25:20.369Z,21.37
2019-02-26T00:27:49.568Z,28.50
2019-02-26T00:30:18.779Z,31.47
2019-02-26T00:32:47.193Z,30.80
2019-02-26T00:35:16.483Z,29.37
2019-02-26T00:37:46.645Z,24.07
2019-02-26T00:40:19.650Z,20.60
2019-02-26T00:42:50.222Z,18.17
2019-02-26T00:45:16.602Z,17.53
2019-02-26T00:47:46.231Z,16.73
2019-02-26T00:50:16.603Z,18.10
2019-02-26T00:52:45.248Z,15.87
2019-02-26T00:55:13.669Z,12.53
2019-02-26T00:57:42.993Z,16.43
2019-02-26T01:00:16.570Z,12.70
2019-02-26T01:02:44.999Z,13.13
2019-02-26T01:05:15.908Z,18.17
2019-02-26T01:07:48.807Z,10.77
2019-02-26T01:10:16.406Z,9.77
2019-02-26T01:12:46.000Z,8.50
2019-02-26T01:15:19.114Z,9.00
2019-02-26T01:17:47.536Z,8.67
2019-02-26T01:20:19.330Z,12.13
2019-02-26T01:22:47.458Z,9.30
2019-02-26T01:25:18.509Z,7.60
2019-02-26T01:27:48.209Z,9.33
2019-02-26T01:30:20.701Z,8.40
2019-02-26T01:32:46.810Z,8.57
2019-02-26T01:35:15.372Z,10.07
2019-02-26T01:37:43.797Z,7.73
2019-02-26T01:40:15.916Z,6.40
2019-02-26T01:42:47.082Z,8.47
2019-02-26T01:45:13.998Z,7.10
2019-02-26T01:47:45.253Z,7.33
2019-02-26T01:50:15.987Z,6.97
2019-02-26T01:52:43.721Z,8.73
2019-02-26T01:55:12.379Z,7.40
2019-02-26T01:57:43.488Z,7.53
2019-02-26T02:00:13.257Z,9.87
2019-02-26T02:02:41.731Z,7.67
2019-02-26T02:05:10.236Z,8.17
2019-02-26T02:07:38.654Z,7.40
2019-02-26T02:10:12.117Z,6.73
2019-02-26T02:12:41.476Z,6.73
2019-02-26T02:15:14.940Z,6.43
2019-02-26T02:17:42.944Z,6.77
2019-02-26T02:20:30.697Z,6.67
2019-02-26T02:23:00.926Z,6.37
2019-02-26T02:25:33.225Z,7.70
2019-02-26T02:28:02.137Z,7.60
2019-02-26T02:30:31.287Z,5.50
2019-02-26T02:33:02.013Z,6.00
2019-02-26T02:35:30.098Z,10.17
2019-02-26T02:38:00.109Z,7.00
2019-02-26T02:40:28.668Z,6.33
2019-02-26T02:42:57.092Z,5.87
2019-02-26T02:45:25.509Z,4.47
2019-02-26T02:47:57.679Z,5.50
2019-02-26T02:50:24.068Z,5.70
2019-02-26T02:52:53.504Z,5.47
2019-02-26T02:55:22.637Z,5.77
2019-02-26T02:57:53.080Z,4.20
2019-02-26T03:00:25.319Z,5.23
2019-02-26T03:02:52.936Z,5.13
2019-02-26T03:05:21.760Z,5.27
2019-02-26T03:07:52.911Z,6.97
2019-02-26T03:10:20.349Z,8.93
2019-02-26T03:12:54.280Z,5.77
2019-02-26T03:15:21.200Z,5.93
2019-02-26T03:17:49.045Z,4.87
2019-02-26T03:20:17.474Z,5.13
2019-02-26T03:22:49.020Z,6.80
2019-02-26T03:25:20.497Z,7.33
2019-02-26T03:27:47.614Z,6.60
2019-02-26T03:30:31.948Z,6.13
2019-02-26T03:32:58.146Z,7.87
2019-02-26T03:35:23.401Z,6.43
2019-02-26T03:37:54.895Z,7.03
2019-02-26T03:40:24.116Z,6.60
2019-02-26T03:42:52.485Z,10.50
2019-02-26T03:45:24.814Z,7.53
2019-02-26T03:47:51.331Z,6.10
2019-02-26T03:50:19.740Z,8.33
2019-02-26T03:52:48.160Z,6.23
2019-02-26T03:55:18.914Z,6.95
2019-02-26T03:57:47.568Z,7.85
2019-02-26T04:00:20.328Z,6.13
2019-02-26T04:02:51.645Z,7.92
2019-02-26T04:05:19.217Z,9.45
2019-02-26T04:07:49.858Z,7.33
2019-02-26T04:10:17.822Z,10.13
2019-02-26T04:12:48.936Z,8.40
2019-02-26T04:15:19.802Z,8.38
2019-02-26T04:17:48.221Z,7.90
2019-02-26T04:20:16.999Z,7.05
2019-02-26T04:22:47.087Z,7.72
2019-02-26T04:25:22.160Z,6.05
2019-02-26T04:28:10.887Z,6.90
2019-02-26T04:31:02.782Z,7.40
2019-02-26T04:34:08.552Z,9.93
2019-02-26T04:36:52.347Z,7.47
2019-02-26T04:39:29.077Z,10.10
2019-02-26T04:42:16.820Z,14.60
2019-02-26T04:45:09.101Z,11.70
2019-02-26T04:47:58.516Z,12.95
2019-02-26T04:50:31.686Z,9.80
2019-02-26T04:52:59.729Z,9.80
2019-02-26T04:55:29.765Z,13.62
2019-02-26T04:57:58.158Z,12.37
2019-02-26T05:00:29.741Z,10.93
2019-02-26T05:02:56.745Z,9.98
2019-02-26T05:05:25.915Z,6.62
2019-02-26T05:07:55.349Z,10.50
2019-02-26T05:10:26.488Z,10.63
2019-02-26T05:12:56.997Z,14.10
2019-02-26T05:15:26.388Z,9.60
2019-02-26T05:17:54.269Z,8.65
2019-02-26T05:20:22.754Z,8.70
2019-02-26T05:22:54.692Z,24.67
2019-02-26T05:25:24.413Z,17.82
2019-02-26T05:27:52.834Z,12.28
2019-02-26T05:30:22.415Z,14.07
2019-02-26T05:32:52.004Z,16.37
2019-02-26T05:35:23.383Z,11.75
2019-02-26T05:37:51.387Z,14.53
2019-02-26T05:40:22.090Z,11.80
2019-02-26T05:42:49.976Z,11.93
2019-02-26T05:45:18.401Z,13.35
2019-02-26T05:47:50.193Z,12.23
2019-02-26T05:50:16.991Z,12.83
2019-02-26T05:52:49.737Z,9.48
2019-02-26T05:55:17.555Z,9.58
2019-02-26T05:57:45.737Z,10.90
2019-02-26T06:00:18.230Z,11.50
2019-02-26T06:02:50.394Z,18.00
2019-02-26T06:05:18.370Z,12.93
2019-02-26T06:07:46.669Z,12.03
2019-02-26T06:10:15.494Z,15.30
2019-02-26T06:12:46.629Z,16.65
2019-02-26T06:15:14.342Z,11.55
2019-02-26T06:17:45.720Z,11.12
2019-02-26T06:20:23.427Z,11.83
2019-02-26T06:22:51.554Z,12.30
2019-02-26T06:25:24.018Z,12.07
2019-02-26T06:27:50.140Z,10.63
2019-02-26T06:30:18.567Z,11.85
2019-02-26T06:32:47.061Z,17.97
2019-02-26T06:35:19.051Z,13.70
2019-02-26T06:37:46.525Z,15.83
2019-02-26T06:40:16.497Z,14.23
2019-02-26T06:42:44.944Z,11.80
2019-02-26T06:45:16.400Z,11.93
2019-02-26T06:47:45.804Z,11.47
2019-02-26T06:50:17.979Z,14.30
2019-02-26T06:52:47.492Z,16.23
2019-02-26T06:55:15.198Z,16.95
2019-02-26T06:57:44.698Z,15.57
2019-02-26T07:00:22.303Z,11.50
2019-02-26T07:02:50.707Z,14.65
2019-02-26T07:05:19.138Z,11.93
2019-02-26T07:07:47.571Z,10.60
2019-02-26T07:10:18.641Z,13.72
2019-02-26T07:12:48.320Z,10.88
2019-02-26T07:15:16.472Z,10.35
2019-02-26T07:17:45.972Z,8.73
2019-02-26T07:20:14.896Z,10.32
2019-02-26T07:22:44.122Z,10.63
2019-02-26T07:25:16.055Z,12.40
2019-02-26T07:27:43.715Z,9.65
2019-02-26T07:30:32.584Z,21.03
2019-02-26T07:33:03.023Z,12.07
2019-02-26T07:35:32.808Z,11.30
2019-02-26T07:38:03.596Z,14.10
2019-02-26T07:40:33.067Z,13.38
2019-02-26T07:43:04.936Z,15.13
2019-02-26T07:45:32.465Z,12.00
2019-02-26T07:48:01.106Z,15.15
2019-02-26T07:50:34.763Z,14.18
2019-02-26T07:53:00.234Z,13.60
2019-02-26T07:55:32.208Z,13.72
2019-02-26T07:57:59.081Z,15.53
2019-02-26T08:00:27.505Z,15.50
2019-02-26T08:02:57.838Z,13.60
2019-02-26T08:05:28.666Z,15.37
2019-02-26T08:07:56.635Z,17.43
2019-02-26T08:10:25.161Z,12.63
2019-02-26T08:12:53.584Z,16.97
2019-02-26T08:15:22.306Z,15.83
2019-02-26T08:17:55.390Z,13.13
2019-02-26T08:20:20.908Z,13.77
2019-02-26T08:22:51.405Z,12.23
2019-02-26T08:25:19.549Z,14.33
2019-02-26T08:27:49.935Z,10.23
2019-02-26T08:30:20.993Z,18.30
2019-02-26T08:32:51.183Z,10.27
2019-02-26T08:35:19.096Z,10.73
2019-02-26T08:37:47.645Z,11.30
2019-02-26T08:40:16.100Z,9.87
2019-02-26T08:42:44.568Z,9.90
2019-02-26T08:45:17.579Z,11.70
2019-02-26T08:47:45.345Z,10.40
2019-02-26T08:50:15.046Z,15.00
2019-02-26T08:52:44.870Z,10.00
2019-02-26T08:55:16.202Z,15.57
2019-02-26T08:57:44.975Z,14.53
2019-02-26T09:00:21.157Z,11.03
2019-02-26T09:02:53.833Z,11.77
2019-02-26T09:05:19.739Z,11.10
2019-02-26T09:07:50.354Z,12.20
2019-02-26T09:10:20.517Z,10.73
2019-02-26T09:12:51.046Z,12.83
2019-02-26T09:15:19.834Z,13.57
2019-02-26T09:17:48.241Z,13.23
2019-02-26T09:20:18.973Z,13.80
2019-02-26T09:22:50.283Z,16.00
2019-02-26T09:25:20.368Z,13.83
2019-02-26T09:27:48.513Z,13.33
2019-02-26T09:30:20.498Z,12.20
2019-02-26T09:32:48.909Z,15.93
2019-02-26T09:35:21.762Z,13.73
2019-02-26T09:37:52.072Z,14.93
2019-02-26T09:40:20.327Z,23.57
2019-02-26T09:42:53.828Z,14.03
2019-02-26T09:45:28.771Z,13.67
2019-02-26T09:47:57.847Z,16.23
2019-02-26T09:50:26.273Z,14.70
2019-02-26T09:52:56.581Z,13.77
2019-02-26T09:55:24.842Z,12.77
2019-02-26T09:57:53.255Z,13.73
2019-02-26T10:00:25.855Z,13.90
2019-02-26T10:02:52.925Z,16.87
2019-02-26T10:05:21.377Z,12.40
2019-02-26T10:07:52.314Z,14.07
2019-02-26T10:10:25.393Z,12.47
2019-02-26T10:12:55.910Z,14.73
2019-02-26T10:15:23.716Z,11.93
2019-02-26T10:17:52.129Z,13.63
2019-02-26T10:20:29.724Z,10.97
2019-02-26T10:22:58.642Z,12.20
2019-02-26T10:25:31.100Z,12.33
2019-02-26T10:27:57.582Z,16.53
2019-02-26T10:30:27.716Z,15.20
2019-02-26T10:32:56.170Z,9.90
2019-02-26T10:35:32.421Z,10.27
2019-02-26T10:38:14.450Z,7.10
2019-02-26T10:40:53.510Z,7.67
2019-02-26T10:43:13.029Z,10.57
2019-02-26T10:45:44.195Z,10.17
2019-02-26T10:48:13.312Z,7.53
2019-02-26T10:50:44.233Z,7.83
2019-02-26T10:53:14.223Z,8.57
2019-02-26T10:55:42.299Z,6.73
2019-02-26T10:58:13.139Z,9.87
2019-02-26T11:00:41.175Z,8.73
2019-02-26T11:03:12.081Z,9.17
2019-02-26T11:05:42.415Z,8.73
2019-02-26T11:08:09.971Z,6.27
2019-02-26T11:10:41.441Z,6.63
2019-02-26T11:13:08.873Z,5.43
2019-02-26T11:15:37.313Z,6.40
2019-02-26T11:18:05.919Z,5.07
2019-02-26T11:20:34.543Z,8.87
2019-02-26T11:23:05.485Z,8.23
2019-02-26T11:25:33.121Z,8.17
2019-02-26T11:28:02.433Z,8.17
2019-02-26T11:30:32.309Z,10.47
2019-02-26T11:33:03.109Z,7.60
2019-02-26T11:35:30.981Z,8.43
2019-02-26T11:37:59.393Z,6.37
2019-02-26T11:40:30.511Z,8.00
2019-02-26T11:43:00.219Z,6.53
2019-02-26T11:45:28.439Z,8.70
2019-02-26T11:47:58.060Z,7.30
2019-02-26T11:50:28.481Z,6.83
2019-02-26T11:52:57.572Z,8.30
2019-02-26T11:55:29.025Z,9.53
2019-02-26T11:57:56.403Z,7.43
2019-02-26T12:00:50.525Z,7.93
2019-02-26T12:03:22.847Z,9.07
2019-02-26T12:05:49.381Z,7.30
2019-02-26T12:08:20.090Z,8.53
2019-02-26T12:10:47.999Z,5.50
2019-02-26T12:13:17.690Z,7.80
2019-02-26T12:15:47.221Z,6.23
2019-02-26T12:18:17.937Z,8.63
2019-02-26T12:21:05.979Z,9.50
2019-02-26T12:23:37.396Z,5.10
2019-02-26T12:26:05.413Z,10.93
2019-02-26T12:28:35.909Z,6.07
2019-02-26T12:31:05.111Z,7.63
2019-02-26T12:33:34.202Z,6.87
2019-02-26T12:36:04.605Z,6.73
2019-02-26T12:38:36.532Z,5.97
2019-02-26T12:41:02.921Z,4.97
2019-02-26T12:43:33.136Z,9.00
2019-02-26T12:46:04.549Z,9.50
2019-02-26T12:48:31.620Z,4.53
2019-02-26T12:51:01.412Z,5.93
2019-02-26T12:53:31.821Z,4.60
2019-02-26T12:56:02.492Z,5.20
2019-02-26T12:58:30.409Z,3.60
2019-02-26T13:00:58.825Z,3.90
2019-02-26T13:03:27.242Z,8.00
2019-02-26T13:05:55.661Z,3.50
2019-02-26T13:08:24.337Z,5.97
2019-02-26T13:10:56.140Z,4.50
2019-02-26T13:13:23.038Z,3.87
2019-02-26T13:15:51.458Z,3.43
2019-02-26T13:18:19.884Z,3.87
2019-02-26T13:20:52.041Z,4.57
2019-02-26T13:23:20.749Z,3.27
2019-02-26T13:25:48.590Z,4.63
2019-02-26T13:28:17.009Z,3.83
2019-02-26T13:30:45.418Z,4.57
2019-02-26T13:33:13.972Z,2.40
2019-02-26T13:35:45.608Z,2.17
2019-02-26T13:38:12.809Z,3.83
2019-02-26T13:40:41.525Z,2.97
2019-02-26T13:43:09.970Z,2.07
2019-02-26T13:45:38.381Z,2.83
2019-02-26T13:48:26.145Z,2.53
2019-02-26T13:50:54.933Z,1.60
2019-02-26T13:53:23.361Z,2.20
2019-02-26T13:55:51.773Z,3.87
2019-02-26T13:58:20.201Z,3.40
2019-02-26T14:00:48.617Z,2.10
2019-02-26T14:03:17.317Z,2.07
2019-02-26T14:05:45.728Z,2.63
2019-02-26T14:08:14.154Z,1.77
2019-02-26T14:10:42.568Z,3.73
2019-02-26T14:13:10.996Z,4.00
2019-02-26T14:15:39.488Z,3.23
2019-02-26T14:18:07.985Z,3.90
2019-02-26T14:20:36.405Z,6.83
2019-02-26T14:23:04.874Z,2.80
2019-02-26T14:25:33.348Z,2.70
2019-02-26T14:28:01.769Z,2.20
2019-02-26T14:30:30.178Z,3.20
2019-02-26T14:32:58.600Z,2.83
2019-02-26T14:35:27.013Z,5.50
2019-02-26T14:37:55.510Z,2.27
2019-02-26T14:40:23.921Z,2.33
2019-02-26T14:42:52.655Z,5.57
2019-02-26T14:45:23.382Z,3.03
2019-02-26T14:47:51.797Z,3.07
2019-02-26T14:50:23.708Z,3.33
2019-02-26T14:52:52.141Z,2.70
2019-02-26T14:55:20.548Z,3.67
2019-02-26T14:57:48.969Z,2.67
2019-02-26T15:00:21.049Z,2.13
2019-02-26T15:02:49.812Z,1.87
2019-02-26T15:05:18.226Z,3.53
2019-02-26T15:07:46.645Z,2.30
2019-02-26T15:10:15.328Z,2.20
2019-02-26T15:12:43.757Z,2.40
2019-02-26T15:15:18.943Z,3.67
2019-02-26T15:17:47.676Z,5.67
2019-02-26T15:20:18.496Z,2.80
2019-02-26T15:22:46.920Z,2.40
2019-02-26T15:25:30.061Z,2.93
2019-02-26T15:28:17.500Z,3.07
2019-02-26T15:30:45.709Z,2.43
2019-02-26T15:33:14.142Z,4.07
2019-02-26T15:35:42.549Z,4.03
2019-02-26T15:38:10.973Z,6.53
2019-02-26T15:40:39.385Z,2.00
2019-02-26T15:43:07.809Z,2.60
2019-02-26T15:45:36.501Z,2.53
2019-02-26T15:48:05.195Z,2.00
2019-02-26T15:50:33.298Z,4.27
2019-02-26T15:53:01.378Z,4.37
2019-02-26T15:55:32.817Z,3.93
2019-02-26T15:58:03.944Z,4.83
2019-02-26T16:00:31.380Z,3.80
2019-02-26T16:03:00.126Z,2.87
2019-02-26T16:05:33.049Z,1.80
2019-02-26T16:08:01.471Z,2.77
2019-02-26T16:10:29.888Z,2.07
2019-02-26T16:13:04.176Z,2.97
2019-02-26T16:15:35.103Z,4.77
2019-02-26T16:18:03.176Z,1.97
2019-02-26T16:20:31.607Z,4.67
2019-02-26T16:22:59.688Z,2.83
2019-02-26T16:25:27.788Z,3.80
2019-02-26T16:27:55.873Z,10.00
2019-02-26T16:30:28.849Z,3.03
2019-02-26T16:32:57.261Z,9.17
2019-02-26T16:35:25.826Z,7.10
2019-02-26T16:37:54.357Z,5.73
2019-02-26T16:40:22.862Z,6.80
2019-02-26T16:42:51.298Z,3.67
2019-02-26T16:45:20.772Z,4.83
2019-02-26T16:47:49.506Z,5.13
2019-02-26T16:50:20.508Z,4.30
2019-02-26T16:52:48.915Z,5.93
2019-02-26T16:55:17.360Z,4.00
2019-02-26T16:57:46.242Z,4.53
2019-02-26T17:00:20.660Z,7.20
2019-02-26T17:02:49.276Z,4.10
2019-02-26T17:05:17.840Z,5.67
2019-02-26T17:07:46.602Z,5.07
2019-02-26T17:10:20.525Z,5.17
2019-02-26T17:12:53.412Z,5.60
2019-02-26T17:15:30.581Z,8.17
2019-02-26T17:17:59.061Z,7.13
2019-02-26T17:20:27.877Z,6.03
2019-02-26T17:22:56.347Z,8.97
2019-02-26T17:25:27.332Z,6.77
2019-02-26T17:27:54.962Z,5.67
2019-02-26T17:30:23.857Z,10.07
2019-02-26T17:32:53.089Z,23.77
2019-02-26T17:35:21.194Z,15.20
2019-02-26T17:37:49.604Z,10.53
2019-02-26T17:40:19.873Z,10.87
2019-02-26T17:42:48.897Z,12.73
2019-02-26T17:45:22.058Z,7.77
2019-02-26T17:47:50.472Z,12.13
2019-02-26T17:50:23.072Z,22.50
2019-02-26T17:52:51.502Z,19.73
2019-02-26T17:55:19.597Z,29.30
2019-02-26T17:57:47.677Z,22.00
2019-02-26T18:00:23.222Z,22.57
2019-02-26T18:02:51.743Z,21.10
2019-02-26T18:05:19.844Z,26.77
2019-02-26T18:07:48.265Z,21.70
2019-02-26T18:10:19.401Z,18.53
2019-02-26T18:12:47.830Z,15.10
2019-02-26T18:15:17.571Z,13.97
2019-02-26T18:17:46.581Z,19.27
2019-02-26T18:20:18.427Z,23.50
2019-02-26T18:22:46.841Z,19.13
2019-02-26T18:25:16.473Z,17.27
2019-02-26T18:27:46.648Z,17.47
2019-02-26T18:30:16.250Z,20.68
2019-02-26T18:32:50.124Z,19.03
2019-02-26T18:35:15.182Z,18.43
2019-02-26T18:37:46.322Z,18.00
2019-02-26T18:40:15.917Z,31.57
2019-02-26T18:43:03.745Z,36.30
2019-02-26T18:45:31.837Z,28.73
2019-02-26T18:48:00.266Z,29.07
2019-02-26T18:50:29.512Z,31.43
2019-02-26T18:52:58.469Z,25.80
2019-02-26T18:55:28.419Z,25.43
2019-02-26T18:57:57.638Z,23.13
2019-02-26T19:00:27.605Z,28.77
2019-02-26T19:02:56.098Z,34.70
2019-02-26T19:05:24.526Z,27.87
2019-02-26T19:07:52.991Z,27.87
2019-02-26T19:10:21.532Z,31.50
2019-02-26T19:12:49.950Z,37.67
2019-02-26T19:15:20.553Z,30.50
2019-02-26T19:17:49.512Z,27.40
2019-02-26T19:20:19.000Z,32.00
2019-02-26T19:22:47.570Z,33.10
2019-02-26T19:25:16.044Z,25.47
2019-02-26T19:27:44.470Z,30.37
2019-02-26T19:30:15.325Z,27.57
2019-02-26T19:32:47.605Z,23.97
2019-02-26T19:35:13.564Z,22.57
2019-02-26T19:37:41.928Z,24.53
2019-02-26T19:40:13.702Z,30.07
2019-02-26T19:42:42.697Z,25.07
2019-02-26T19:45:32.938Z,26.53
2019-02-26T19:48:01.851Z,30.17
2019-02-26T19:50:30.261Z,30.57
2019-02-26T19:53:02.144Z,24.87
2019-02-26T19:55:34.758Z,17.90
2019-02-26T19:58:06.575Z,23.67
2019-02-26T20:00:33.675Z,23.17
2019-02-26T20:03:05.026Z,18.53
2019-02-26T20:05:32.245Z,21.33
2019-02-26T20:08:04.979Z,20.37
2019-02-26T20:10:31.214Z,19.57
2019-02-26T20:13:01.310Z,22.53
2019-02-26T20:15:30.446Z,27.57
2019-02-26T20:17:59.034Z,21.80
2019-02-26T20:20:27.770Z,25.00
2019-02-26T20:22:56.209Z,25.33
2019-02-26T20:25:24.622Z,24.77
2019-02-26T20:27:55.146Z,26.70
2019-02-26T20:30:24.130Z,28.73
2019-02-26T20:32:52.585Z,21.80
2019-02-26T20:35:21.321Z,25.93
2019-02-26T20:37:49.746Z,24.50
2019-02-26T20:40:22.213Z,25.07
2019-02-26T20:42:50.648Z,26.97
2019-02-26T20:45:19.998Z,25.20
2019-02-26T20:47:48.426Z,24.10
2019-02-26T20:50:19.966Z,23.50
2019-02-26T20:52:47.083Z,23.33
2019-02-26T20:55:21.399Z,25.50
2019-02-26T20:57:49.830Z,26.30
2019-02-26T21:00:20.057Z,25.80
2019-02-26T21:03:08.148Z,20.53
2019-02-26T21:05:36.265Z,16.67
2019-02-26T21:08:04.767Z,18.60
2019-02-26T21:10:33.445Z,17.07
2019-02-26T21:13:02.464Z,15.67
2019-02-26T21:15:30.733Z,16.23
2019-02-26T21:17:59.484Z,12.63
2019-02-26T21:20:27.572Z,14.97
2019-02-26T21:22:56.601Z,14.97
2019-02-26T21:25:32.021Z,14.13
2019-02-26T21:28:01.469Z,15.00
2019-02-26T21:30:29.999Z,11.23
2019-02-26T21:33:05.338Z,13.90
2019-02-26T21:35:33.747Z,16.70
2019-02-26T21:38:05.732Z,18.80
2019-02-26T21:40:31.974Z,12.43
2019-02-26T21:43:02.420Z,13.90
2019-02-26T21:45:30.221Z,18.50
2019-02-26T21:48:02.497Z,14.57
2019-02-26T21:50:28.830Z,15.43
2019-02-26T21:53:00.284Z,17.80
2019-02-26T21:55:27.409Z,16.17
2019-02-26T21:57:55.857Z,13.97
2019-02-26T22:00:25.197Z,21.07
2019-02-26T22:02:53.634Z,16.70
2019-02-26T22:05:22.055Z,15.53
2019-02-26T22:07:52.435Z,14.77
2019-02-26T22:10:21.620Z,12.33
2019-02-26T22:12:50.098Z,13.20
2019-02-26T22:15:18.924Z,13.53
2019-02-26T22:17:47.002Z,14.13
2019-02-26T22:20:23.431Z,16.17
2019-02-26T22:22:45.620Z,13.33
2019-02-26T22:25:17.096Z,15.47
2019-02-26T22:27:44.421Z,15.20
2019-02-26T22:30:22.161Z,14.37
2019-02-26T22:32:50.599Z,13.70
2019-02-26T22:35:18.697Z,12.03
2019-02-26T22:37:47.113Z,13.53
2019-02-26T22:40:15.911Z,17.87
2019-02-26T22:42:44.329Z,14.33
2019-02-26T22:45:16.357Z,15.37
2019-02-26T22:47:44.885Z,11.30
2019-02-26T22:50:24.913Z,13.10
2019-02-26T22:52:55.054Z,12.97
2019-02-26T22:55:23.481Z,11.23
2019-02-26T22:57:51.887Z,12.53
2019-02-26T23:01:01.124Z,12.93
2019-02-26T23:03:29.615Z,10.70
2019-02-26T23:05:59.043Z,11.40
2019-02-26T23:08:28.132Z,10.23
2019-02-26T23:10:57.373Z,11.33
2019-02-26T23:13:26.497Z,13.93
2019-02-26T23:15:54.925Z,11.50
2019-02-26T23:18:23.012Z,13.07
2019-02-26T23:20:51.276Z,11.90
2019-02-26T23:23:21.706Z,11.77
2019-02-26T23:25:49.257Z,13.73
2019-02-26T23:28:21.704Z,13.57
2019-02-26T23:30:49.361Z,15.40
2019-02-26T23:33:17.777Z,12.10
2019-02-26T23:35:46.284Z,11.50
2019-02-26T23:38:15.552Z,12.77
2019-02-26T23:40:44.025Z,15.30
2019-02-26T23:43:12.541Z,13.67
2019-02-26T23:45:40.959Z,16.53
2019-02-26T23:48:09.082Z,12.17
2019-02-26T23:50:37.177Z,11.60
2019-02-26T23:53:05.261Z,12.70
2019-02-26T23:55:33.361Z,12.43
2019-02-26T23:58:01.437Z,14.20
